Time;durP1;ratioP1;P1;durP2;ratioP2;P2;SDS_P1;SDS_P2;PMS_P1;PMS_P2;Temp;Humidity;BMP_temperature;BMP_pressure;BME280_temperature;BME280_humidity;BME280_pressure;Samples;Min_cycle;Max_cycle;Signal;HPM_P1;HPM_P2
2023/05/27 00:01:45;;;;;;;6.32;5.05;;;14.90;99.90;;;;;;4163291;28;20428;-72
2023/05/27 00:03:46;;;;;;;7.88;5.38;;;14.90;99.90;;;;;;4163151;28;20037;-61
2023/05/27 00:05:47;;;;;;;9.80;5.32;;;15.00;99.90;;;;;;4162808;28;20099;-71
2023/05/27 00:07:48;;;;;;;5.72;4.40;;;15.00;99.90;;;;;;4163703;28;20041;-70
2023/05/27 00:09:50;;;;;;;7.93;4.43;;;15.00;99.90;;;;;;4162935;28;20481;-72
2023/05/27 00:11:51;;;;;;;6.20;4.97;;;15.00;99.90;;;;;;4163913;28;20041;-71
2023/05/27 00:13:52;;;;;;;8.23;5.28;;;15.00;99.90;;;;;;4163054;28;20424;-60
2023/05/27 00:15:53;;;;;;;5.78;4.43;;;15.00;99.90;;;;;;4163546;28;20054;-56
2023/05/27 00:17:55;;;;;;;5.88;4.43;;;15.00;99.90;;;;;;4146312;28;20566;-72
2023/05/27 00:19:57;;;;;;;8.35;4.80;;;14.90;99.90;;;;;;4146566;28;20056;-73
2023/05/27 00:21:58;;;;;;;8.10;5.22;;;14.90;99.90;;;;;;4147027;28;20050;-71
2023/05/27 00:23:59;;;;;;;6.68;4.20;;;14.90;99.90;;;;;;4149941;28;20029;-74
2023/05/27 00:26:01;;;;;;;6.07;5.03;;;14.90;99.90;;;;;;4162719;28;20033;-67
2023/05/27 00:28:02;;;;;;;7.25;5.18;;;14.80;99.90;;;;;;4162617;28;20135;-69
2023/05/27 00:30:03;;;;;;;9.23;5.85;;;14.80;99.90;;;;;;4163117;28;20444;-66
2023/05/27 00:32:05;;;;;;;10.52;5.55;;;14.80;99.90;;;;;;4162599;28;20417;-73
2023/05/27 00:34:06;;;;;;;9.57;5.68;;;14.70;99.90;;;;;;4162022;28;20092;-74
2023/05/27 00:36:07;;;;;;;7.13;5.03;;;14.70;99.90;;;;;;4162371;28;20366;-73
2023/05/27 00:38:08;;;;;;;6.97;5.03;;;14.70;99.90;;;;;;4163917;28;20037;-69
2023/05/27 00:40:11;;;;;;;9.23;5.53;;;14.60;99.90;;;;;;4162435;28;20045;-74
2023/05/27 00:42:13;;;;;;;8.25;5.00;;;14.60;99.90;;;;;;4161456;28;20063;-68
2023/05/27 00:44:14;;;;;;;9.27;5.45;;;14.60;99.90;;;;;;4162428;28;20045;-69
2023/05/27 00:46:15;;;;;;;6.90;4.80;;;14.60;99.90;;;;;;4163350;28;20383;-74
2023/05/27 00:48:17;;;;;;;9.55;6.43;;;14.50;99.90;;;;;;4144846;28;20037;-70
2023/05/27 00:50:18;;;;;;;6.10;4.55;;;14.50;99.90;;;;;;4162221;28;20091;-68
2023/05/27 00:52:19;;;;;;;9.15;5.13;;;14.60;99.90;;;;;;4161427;28;20425;-60
2023/05/27 00:54:21;;;;;;;5.70;4.82;;;14.60;99.90;;;;;;4162136;28;20021;-63
2023/05/27 00:56:22;;;;;;;5.15;4.05;;;14.60;99.90;;;;;;4162939;28;20072;-68
2023/05/27 00:58:24;;;;;;;7.50;5.18;;;14.60;99.90;;;;;;4161285;28;20106;-58
2023/05/27 01:00:25;;;;;;;6.78;4.28;;;14.60;99.90;;;;;;4163504;28;20029;-60
2023/05/27 01:02:26;;;;;;;7.28;5.18;;;14.50;99.90;;;;;;4162029;28;20375;-61
2023/05/27 01:04:27;;;;;;;7.90;4.78;;;14.50;99.90;;;;;;4163200;28;20540;-59
2023/05/27 01:06:49;;;;;;;6.97;4.55;;;14.50;99.90;;;;;;4161820;28;20072;-61
2023/05/27 01:09:06;;;;;;;9.23;5.00;;;14.50;99.90;;;;;;4163192;28;20436;-60
2023/05/27 01:11:10;;;;;;;6.70;4.80;;;14.40;99.90;;;;;;4162083;28;20033;-60
2023/05/27 01:13:32;;;;;;;7.82;5.60;;;14.40;99.90;;;;;;4162274;28;20037;-61
2023/05/27 01:15:34;;;;;;;7.47;4.93;;;14.40;99.90;;;;;;4161991;28;20049;-57
2023/05/27 01:17:37;;;;;;;11.50;5.90;;;14.30;99.90;;;;;;4161931;28;20041;-58
2023/05/27 01:19:42;;;;;;;8.38;4.82;;;14.30;99.90;;;;;;4160667;28;20041;-59
2023/05/27 01:21:50;;;;;;;7.90;5.40;;;14.30;99.90;;;;;;4128318;28;20104;-59
2023/05/27 01:23:52;;;;;;;12.10;5.53;;;14.30;99.90;;;;;;4142462;28;20100;-60
2023/05/27 01:25:53;;;;;;;5.65;4.45;;;14.40;99.90;;;;;;4146241;28;20084;-60
2023/05/27 01:27:56;;;;;;;5.45;4.28;;;14.40;99.90;;;;;;4145124;28;20049;-60
2023/05/27 01:29:57;;;;;;;9.63;4.68;;;14.40;99.90;;;;;;4145108;28;20041;-59
2023/05/27 01:32:07;;;;;;;6.28;4.78;;;14.40;99.90;;;;;;4145119;28;20038;-58
2023/05/27 01:34:13;;;;;;;6.00;4.47;;;14.50;99.90;;;;;;4146485;28;20080;-60
2023/05/27 01:36:17;;;;;;;5.57;4.28;;;14.50;99.90;;;;;;4144825;28;20042;-58
2023/05/27 01:38:20;;;;;;;7.30;4.90;;;14.40;99.90;;;;;;4146529;28;20088;-60
2023/05/27 01:40:23;;;;;;;6.50;5.00;;;14.40;99.90;;;;;;4145221;28;20042;-59
2023/05/27 01:42:25;;;;;;;8.32;4.70;;;14.40;99.90;;;;;;4146372;28;20072;-62
2023/05/27 01:44:26;;;;;;;5.70;4.28;;;14.50;99.90;;;;;;4144957;28;20025;-60
2023/05/27 01:46:27;;;;;;;10.00;3.95;;;14.50;99.90;;;;;;4146150;28;20026;-59
2023/05/27 01:48:28;;;;;;;6.07;4.57;;;14.40;99.90;;;;;;4145708;28;20045;-59
2023/05/27 01:50:30;;;;;;;6.05;4.25;;;14.40;99.90;;;;;;4145160;28;20092;-60
2023/05/27 01:52:31;;;;;;;6.03;4.20;;;14.40;99.90;;;;;;4145559;28;20026;-59
2023/05/27 01:54:32;;;;;;;10.55;5.63;;;14.40;99.90;;;;;;4143888;28;20096;-60
2023/05/27 01:56:33;;;;;;;6.80;5.03;;;14.40;99.90;;;;;;4145519;28;20116;-59
2023/05/27 01:58:34;;;;;;;12.15;4.60;;;14.40;99.90;;;;;;4144678;28;20034;-60
2023/05/27 02:00:36;;;;;;;7.70;4.60;;;14.40;99.90;;;;;;4145852;28;20096;-59
2023/05/27 02:02:37;;;;;;;7.45;4.47;;;14.30;99.90;;;;;;4144825;28;20072;-59
2023/05/27 02:04:38;;;;;;;6.78;4.93;;;14.30;99.90;;;;;;4146041;28;20403;-59
2023/05/27 02:06:40;;;;;;;6.10;4.70;;;14.30;99.90;;;;;;4144520;28;20429;-57
2023/05/27 02:08:41;;;;;;;7.13;5.00;;;14.30;99.90;;;;;;4146056;28;20384;-60
2023/05/27 02:10:42;;;;;;;9.90;4.70;;;14.30;99.90;;;;;;4144462;28;20030;-59
2023/05/27 02:12:43;;;;;;;7.70;4.60;;;14.30;99.90;;;;;;4145554;28;20045;-59
2023/05/27 02:14:45;;;;;;;4.93;4.43;;;14.30;99.90;;;;;;4144703;28;20083;-60
2023/05/27 02:16:47;;;;;;;7.68;4.60;;;14.30;99.90;;;;;;4145340;28;20437;-60
2023/05/27 02:18:51;;;;;;;8.50;5.20;;;14.30;99.90;;;;;;4129441;28;20049;-60
2023/05/27 02:20:52;;;;;;;7.43;5.03;;;14.30;99.90;;;;;;4144606;28;20486;-60
2023/05/27 02:22:53;;;;;;;6.00;5.07;;;14.30;99.90;;;;;;4160970;28;20052;-59
2023/05/27 02:24:54;;;;;;;6.93;5.30;;;14.20;99.90;;;;;;4160275;28;20084;-59
2023/05/27 02:26:56;;;;;;;7.22;4.53;;;14.30;99.90;;;;;;4161274;28;20053;-58
2023/05/27 02:28:57;;;;;;;4.63;4.05;;;14.30;99.90;;;;;;4160843;28;20033;-59
2023/05/27 02:30:59;;;;;;;7.40;4.53;;;14.30;99.90;;;;;;4161678;28;20026;-60
2023/05/27 02:33:00;;;;;;;6.43;4.55;;;14.30;99.90;;;;;;4160239;28;20037;-60
2023/05/27 02:35:02;;;;;;;6.25;4.30;;;14.40;99.90;;;;;;4161866;28;20045;-60
2023/05/27 02:37:04;;;;;;;8.52;4.65;;;14.40;99.90;;;;;;4160435;28;20115;-59
2023/05/27 02:39:06;;;;;;;8.32;4.22;;;14.40;99.90;;;;;;4161843;28;20559;-59
2023/05/27 02:41:07;;;;;;;6.53;4.40;;;14.40;99.90;;;;;;4160691;28;20141;-59
2023/05/27 02:43:08;;;;;;;4.90;4.40;;;14.40;99.90;;;;;;4161616;28;20033;-60
2023/05/27 02:45:10;;;;;;;7.05;4.75;;;14.40;99.90;;;;;;4160678;28;20451;-58
2023/05/27 02:47:11;;;;;;;9.57;4.55;;;14.40;99.90;;;;;;4161936;28;20025;-60
2023/05/27 02:49:12;;;;;;;6.97;4.93;;;14.40;99.90;;;;;;4160960;28;20067;-56
2023/05/27 02:51:13;;;;;;;5.57;4.47;;;14.40;99.90;;;;;;4160978;28;20034;-59
2023/05/27 02:53:14;;;;;;;5.78;3.92;;;14.40;99.90;;;;;;4161159;28;20083;-60
2023/05/27 02:55:15;;;;;;;9.45;4.60;;;14.40;99.90;;;;;;4159521;28;20485;-60
2023/05/27 02:57:18;;;;;;;6.75;4.50;;;14.50;99.90;;;;;;4159734;28;20115;-59
2023/05/27 02:59:19;;;;;;;8.02;4.68;;;14.50;99.90;;;;;;4159897;28;20100;-60
2023/05/27 03:01:21;;;;;;;8.85;4.50;;;14.50;99.90;;;;;;4161283;28;20099;-59
2023/05/27 03:03:23;;;;;;;7.25;5.10;;;14.50;99.90;;;;;;4160471;28;20458;-60
2023/05/27 03:05:24;;;;;;;10.60;4.82;;;14.50;99.90;;;;;;4161403;28;20084;-59
2023/05/27 03:07:28;;;;;;;8.73;5.03;;;14.50;99.90;;;;;;4159519;28;20088;-57
2023/05/27 03:09:30;;;;;;;6.53;5.22;;;14.50;99.90;;;;;;4161756;28;20029;-59
2023/05/27 03:11:31;;;;;;;6.72;5.05;;;14.50;99.90;;;;;;4160247;28;20458;-60
2023/05/27 03:13:32;;;;;;;7.82;5.13;;;14.40;99.90;;;;;;4160844;28;20041;-60
2023/05/27 03:15:33;;;;;;;5.57;4.75;;;14.40;99.90;;;;;;4159775;28;20049;-57
2023/05/27 03:17:37;;;;;;;9.15;5.25;;;14.40;99.90;;;;;;4160249;28;20049;-61
2023/05/27 03:19:38;;;;;;;9.55;4.93;;;14.40;99.90;;;;;;4159546;28;20041;-59
2023/05/27 03:21:40;;;;;;;6.43;4.63;;;14.40;99.90;;;;;;4160927;28;20095;-60
2023/05/27 03:23:41;;;;;;;6.00;4.97;;;14.50;99.90;;;;;;4160698;28;20083;-59
2023/05/27 03:25:42;;;;;;;6.57;5.05;;;14.50;99.90;;;;;;4159853;28;20453;-59
2023/05/27 03:27:43;;;;;;;6.88;5.35;;;14.50;99.90;;;;;;4161018;28;20041;-60
2023/05/27 03:29:45;;;;;;;7.47;4.65;;;14.50;99.90;;;;;;4160044;28;20087;-58
2023/05/27 03:31:46;;;;;;;7.30;4.53;;;14.50;99.90;;;;;;4160965;28;20041;-59
2023/05/27 03:33:47;;;;;;;8.95;5.38;;;14.50;99.90;;;;;;4160227;28;20026;-60
2023/05/27 03:35:49;;;;;;;8.07;4.80;;;14.50;99.90;;;;;;4160437;28;20030;-60
2023/05/27 03:37:50;;;;;;;13.20;4.85;;;14.50;99.90;;;;;;4159581;28;20069;-58
2023/05/27 03:39:51;;;;;;;8.15;5.03;;;14.50;99.90;;;;;;4161536;28;20056;-59
2023/05/27 03:41:52;;;;;;;8.73;5.18;;;14.50;99.90;;;;;;4160096;28;20025;-59
2023/05/27 03:43:53;;;;;;;7.32;4.78;;;14.60;99.90;;;;;;4161346;28;20045;-59
2023/05/27 03:45:54;;;;;;;6.88;4.45;;;14.60;99.90;;;;;;4160085;28;20104;-60
2023/05/27 03:47:55;;;;;;;5.95;4.28;;;14.70;99.90;;;;;;4160149;28;20045;-60
2023/05/27 03:49:56;;;;;;;7.22;4.70;;;14.70;99.90;;;;;;4158932;28;20091;-59
2023/05/27 03:51:58;;;;;;;6.78;5.60;;;14.70;99.90;;;;;;4160017;28;20041;-60
2023/05/27 03:53:59;;;;;;;8.23;4.57;;;14.80;99.90;;;;;;4159909;28;20037;-73
2023/05/27 03:56:00;;;;;;;6.88;4.70;;;14.80;99.90;;;;;;4142085;28;20046;-60
2023/05/27 03:58:01;;;;;;;8.00;4.60;;;14.90;99.90;;;;;;4160474;28;20037;-58
2023/05/27 04:00:07;;;;;;;6.43;4.45;;;14.90;99.90;;;;;;4159894;28;20033;-58
2023/05/27 04:02:09;;;;;;;6.13;4.07;;;15.00;99.90;;;;;;4160724;28;20432;-58
2023/05/27 04:04:10;;;;;;;8.02;4.40;;;15.00;99.90;;;;;;4159159;28;20049;-58
2023/05/27 04:06:11;;;;;;;6.82;4.28;;;15.00;99.90;;;;;;4160645;28;20067;-59
2023/05/27 04:08:13;;;;;;;5.57;4.43;;;15.00;99.90;;;;;;4160104;28;20175;-58
2023/05/27 04:10:14;;;;;;;9.05;4.38;;;15.00;99.90;;;;;;4163899;28;20025;-57
2023/05/27 04:12:15;;;;;;;7.28;4.95;;;15.00;99.90;;;;;;4161529;28;20037;-59
2023/05/27 04:14:16;;;;;;;7.05;4.13;;;15.00;99.90;;;;;;4163525;28;20468;-59
2023/05/27 04:16:21;;;;;;;5.60;4.22;;;15.10;99.90;;;;;;4162629;28;20041;-60
2023/05/27 04:18:22;;;;;;;8.85;5.30;;;15.20;99.90;;;;;;4162961;28;20111;-60
2023/05/27 04:20:24;;;;;;;6.03;4.63;;;15.20;99.90;;;;;;4162245;28;20107;-60
2023/05/27 04:22:25;;;;;;;6.10;4.55;;;15.30;99.90;;;;;;4163503;28;20560;-75
2023/05/27 04:24:26;;;;;;;7.00;5.20;;;15.30;99.90;;;;;;4163103;28;20021;-72
2023/05/27 04:26:27;;;;;;;6.45;4.10;;;15.30;99.90;;;;;;4162581;28;20493;-73
2023/05/27 04:28:29;;;;;;;10.10;4.55;;;15.30;99.90;;;;;;4161932;28;20080;-73
2023/05/27 04:30:34;;;;;;;7.05;5.45;;;15.30;99.90;;;;;;4161986;28;20038;-65
2023/05/27 04:32:37;;;;;;;8.05;4.55;;;15.40;99.90;;;;;;4162692;28;20091;-61
2023/05/27 04:34:41;;;;;;;7.43;4.50;;;15.40;99.90;;;;;;4162167;28;20042;-72
2023/05/27 04:36:43;;;;;;;7.05;4.70;;;15.40;99.90;;;;;;4162437;28;20100;-73
2023/05/27 04:38:45;;;;;;;6.95;4.40;;;15.50;99.90;;;;;;4162549;28;20080;-74
2023/05/27 04:40:52;;;;;;;7.75;4.93;;;15.50;99.90;;;;;;4163454;28;20427;-69
2023/05/27 04:42:53;;;;;;;7.43;5.40;;;15.60;99.90;;;;;;4160756;28;20387;-57
2023/05/27 04:44:54;;;;;;;7.93;5.10;;;15.60;99.90;;;;;;4163441;28;20089;-59
2023/05/27 04:46:55;;;;;;;9.13;5.00;;;15.60;99.90;;;;;;4161557;28;20045;-59
2023/05/27 04:48:56;;;;;;;6.75;4.30;;;15.70;99.90;;;;;;4145163;28;20494;-58
2023/05/27 04:50:57;;;;;;;7.43;4.95;;;15.70;99.90;;;;;;4162101;28;20033;-58
2023/05/27 04:52:59;;;;;;;7.55;4.90;;;15.70;99.90;;;;;;4163265;28;20033;-59
2023/05/27 04:55:00;;;;;;;10.32;5.18;;;15.80;99.90;;;;;;4161860;28;20091;-74
2023/05/27 04:57:01;;;;;;;6.88;4.15;;;15.80;99.90;;;;;;4163092;28;20045;-61
2023/05/27 04:59:02;;;;;;;8.02;5.10;;;15.80;99.90;;;;;;4162113;28;20045;-59
2023/05/27 05:01:04;;;;;;;7.22;4.95;;;15.80;99.90;;;;;;4162313;28;20041;-59
2023/05/27 05:03:07;;;;;;;6.63;4.72;;;15.80;99.90;;;;;;4161771;28;20088;-59
2023/05/27 05:05:09;;;;;;;9.02;5.68;;;15.80;99.90;;;;;;4162221;28;20026;-60
2023/05/27 05:07:11;;;;;;;8.57;5.22;;;15.80;99.90;;;;;;4161532;28;20714;-59
2023/05/27 05:09:12;;;;;;;9.93;4.50;;;15.90;99.90;;;;;;4161069;28;20049;-59
2023/05/27 05:11:14;;;;;;;7.70;5.03;;;15.90;99.90;;;;;;4162271;28;20573;-58
2023/05/27 05:13:16;;;;;;;6.00;4.18;;;16.00;99.90;;;;;;4161379;28;20045;-59
2023/05/27 05:15:17;;;;;;;9.15;4.90;;;16.00;99.90;;;;;;4161968;28;20049;-60
2023/05/27 05:17:19;;;;;;;6.35;4.53;;;16.00;99.90;;;;;;4161271;28;20053;-60
2023/05/27 05:19:20;;;;;;;5.82;4.68;;;16.10;99.90;;;;;;4161786;28;20049;-60
2023/05/27 05:21:22;;;;;;;6.65;4.75;;;16.10;99.90;;;;;;4161068;28;20107;-60
2023/05/27 05:23:23;;;;;;;9.57;5.07;;;16.10;99.90;;;;;;4162195;28;20045;-60
2023/05/27 05:25:24;;;;;;;8.60;5.03;;;16.20;99.90;;;;;;4161722;28;20033;-59
2023/05/27 05:27:26;;;;;;;8.98;5.35;;;16.30;99.90;;;;;;4161988;28;20485;-59
2023/05/27 05:29:27;;;;;;;6.28;4.47;;;16.30;99.90;;;;;;4161743;28;20022;-60
2023/05/27 05:31:28;;;;;;;10.30;5.30;;;16.40;99.90;;;;;;4161587;28;20030;-61
2023/05/27 05:33:29;;;;;;;12.35;4.78;;;16.50;99.90;;;;;;4161393;28;20042;-57
2023/05/27 05:35:30;;;;;;;7.55;5.32;;;16.60;99.90;;;;;;4161663;28;20029;-61
2023/05/27 05:37:32;;;;;;;24.60;14.25;;;16.70;99.90;;;;;;4161091;28;20386;-60
2023/05/27 05:39:33;;;;;;;10.05;5.97;;;16.90;99.90;;;;;;4160572;28;20053;-61
2023/05/27 05:41:34;;;;;;;8.10;4.43;;;17.00;99.90;;;;;;4161470;28;20038;-59
2023/05/27 05:43:35;;;;;;;6.72;5.03;;;17.10;99.90;;;;;;4161162;28;20033;-59
2023/05/27 05:45:36;;;;;;;8.75;4.55;;;17.20;99.90;;;;;;4162424;28;20072;-59
2023/05/27 05:47:40;;;;;;;7.50;5.50;;;17.30;99.90;;;;;;4161287;28;20046;-60
2023/05/27 05:49:41;;;;;;;5.57;4.72;;;17.50;99.90;;;;;;4161937;28;20366;-61
2023/05/27 05:51:42;;;;;;;7.32;4.85;;;17.80;99.90;;;;;;4160424;28;20414;-60
2023/05/27 05:53:43;;;;;;;7.82;4.88;;;18.10;99.90;;;;;;4161889;28;20033;-60
2023/05/27 05:55:44;;;;;;;5.22;4.68;;;18.30;99.90;;;;;;4160977;28;20033;-60
2023/05/27 05:57:46;;;;;;;9.70;4.95;;;18.60;99.90;;;;;;4160742;28;20478;-75
2023/05/27 05:59:47;;;;;;;5.65;4.40;;;18.80;99.90;;;;;;4160277;28;20075;-59
2023/05/27 06:01:48;;;;;;;7.10;5.05;;;18.90;99.90;;;;;;4160872;28;20428;-60
2023/05/27 06:03:49;;;;;;;4.40;4.00;;;19.10;99.90;;;;;;4160371;28;20041;-60
2023/05/27 06:05:50;;;;;;;6.70;4.32;;;19.20;99.90;;;;;;4161563;28;20041;-74
2023/05/27 06:07:52;;;;;;;6.28;4.43;;;19.30;99.90;;;;;;4161926;28;20474;-64
2023/05/27 06:09:53;;;;;;;6.55;3.95;;;19.50;99.90;;;;;;4159535;28;20489;-64
2023/05/27 06:11:55;;;;;;;7.72;4.43;;;19.60;99.90;;;;;;4161855;28;20079;-60
2023/05/27 06:13:56;;;;;;;7.78;5.20;;;19.80;99.90;;;;;;4161007;28;20030;-58
2023/05/27 06:15:57;;;;;;;6.88;5.10;;;20.00;99.90;;;;;;4161655;28;20021;-59
2023/05/27 06:17:59;;;;;;;7.10;4.30;;;20.20;99.90;;;;;;4158927;28;20122;-60
2023/05/27 06:20:00;;;;;;;6.70;4.03;;;20.40;99.90;;;;;;4161051;28;20075;-74
2023/05/27 06:22:01;;;;;;;6.88;4.10;;;20.70;99.90;;;;;;4160108;28;20580;-62
2023/05/27 06:24:03;;;;;;;6.93;4.32;;;21.00;99.90;;;;;;4161115;28;20087;-74
2023/05/27 06:26:04;;;;;;;4.30;3.85;;;21.30;99.90;;;;;;4159695;28;20033;-73
2023/05/27 06:28:05;;;;;;;6.25;4.05;;;21.50;99.90;;;;;;4161988;28;20536;-71
2023/05/27 06:30:07;;;;;;;7.20;4.65;;;21.70;99.90;;;;;;4159865;28;20482;-58
2023/05/27 06:32:08;;;;;;;9.50;4.30;;;21.60;99.90;;;;;;4159237;28;20041;-70
2023/05/27 06:34:10;;;;;;;6.80;3.95;;;21.60;99.90;;;;;;4160558;28;20087;-75
2023/05/27 06:36:11;;;;;;;6.03;4.55;;;21.60;99.90;;;;;;4156668;28;20045;-60
2023/05/27 06:38:12;;;;;;;6.63;4.30;;;21.70;99.90;;;;;;4142741;28;20469;-73
2023/05/27 06:40:13;;;;;;;6.00;4.05;;;21.90;99.90;;;;;;4159847;28;20679;-58
2023/05/27 06:42:15;;;;;;;6.53;3.95;;;22.00;99.90;;;;;;4160958;28;20072;-57
2023/05/27 06:44:16;;;;;;;9.73;4.35;;;22.10;99.90;;;;;;4159423;28;20049;-59
2023/05/27 06:46:17;;;;;;;6.18;3.80;;;22.10;99.90;;;;;;4160860;28;20033;-59
2023/05/27 06:48:18;;;;;;;4.38;3.65;;;22.30;99.90;;;;;;4160008;28;20033;-67
2023/05/27 06:50:19;;;;;;;4.53;3.55;;;22.40;99.90;;;;;;4160072;28;20052;-59
2023/05/27 06:52:20;;;;;;;4.88;3.97;;;22.30;99.90;;;;;;4159652;28;20037;-65
2023/05/27 06:54:21;;;;;;;4.93;3.90;;;22.30;99.90;;;;;;4160319;28;20049;-63
2023/05/27 06:56:23;;;;;;;5.60;4.10;;;22.50;99.90;;;;;;4159853;28;20576;-63
2023/05/27 06:58:24;;;;;;;5.63;4.40;;;22.50;99.90;;;;;;4157868;28;20030;-59
2023/05/27 07:00:25;;;;;;;4.43;4.03;;;22.50;99.90;;;;;;4156183;28;20038;-60
2023/05/27 07:02:26;;;;;;;8.38;4.32;;;22.70;99.90;;;;;;4160005;28;20083;-59
2023/05/27 07:04:28;;;;;;;6.30;4.32;;;23.20;99.90;;;;;;4159290;28;20042;-60
2023/05/27 07:06:29;;;;;;;7.40;4.20;;;23.70;99.90;;;;;;4159629;28;20082;-65
2023/05/27 07:08:30;;;;;;;4.85;3.40;;;24.20;99.90;;;;;;4160620;28;20030;-73
2023/05/27 07:10:31;;;;;;;6.65;3.90;;;24.50;99.30;;;;;;4160281;28;20034;-72
2023/05/27 07:12:32;;;;;;;3.63;3.22;;;24.60;98.40;;;;;;4160590;28;20100;-73
2023/05/27 07:14:33;;;;;;;4.00;3.20;;;24.80;98.00;;;;;;4159709;28;20037;-60
2023/05/27 07:16:35;;;;;;;5.20;3.83;;;25.00;97.50;;;;;;4159572;28;20045;-61
2023/05/27 07:18:36;;;;;;;7.45;3.67;;;24.90;96.80;;;;;;4159819;28;20071;-62
2023/05/27 07:20:39;;;;;;;5.50;3.92;;;24.60;96.50;;;;;;4159577;28;20103;-62
2023/05/27 07:22:40;;;;;;;8.98;4.75;;;24.50;96.40;;;;;;4158170;28;20041;-60
2023/05/27 07:24:41;;;;;;;8.75;4.60;;;24.50;96.50;;;;;;4159358;28;20029;-62
2023/05/27 07:26:42;;;;;;;5.93;4.30;;;24.70;96.30;;;;;;4159916;28;20092;-64
2023/05/27 07:28:44;;;;;;;8.18;4.32;;;24.20;95.90;;;;;;4160331;28;20033;-61
2023/05/27 07:30:45;;;;;;;5.38;3.75;;;23.90;96.00;;;;;;4159821;28;20068;-64
2023/05/27 07:32:46;;;;;;;5.15;3.85;;;23.90;96.20;;;;;;4160666;28;20041;-60
2023/05/27 07:34:47;;;;;;;5.13;3.78;;;24.00;96.00;;;;;;4159916;28;20087;-63
2023/05/27 07:36:48;;;;;;;6.82;4.30;;;23.80;96.20;;;;;;4160099;28;20111;-67
2023/05/27 07:38:49;;;;;;;5.32;3.80;;;23.70;96.60;;;;;;4159256;28;20468;-70
2023/05/27 07:40:50;;;;;;;7.22;4.07;;;23.70;96.50;;;;;;4159213;28;20037;-59
2023/05/27 07:42:52;;;;;;;9.98;4.78;;;24.10;96.30;;;;;;4159797;28;20087;-61
2023/05/27 07:44:54;;;;;;;6.45;4.15;;;24.20;96.30;;;;;;4161590;28;20072;-63
2023/05/27 07:46:55;;;;;;;6.15;4.25;;;24.40;96.20;;;;;;4162673;28;20111;-59
2023/05/27 07:48:56;;;;;;;7.72;3.75;;;24.80;96.00;;;;;;4162832;28;20033;-70
2023/05/27 07:50:58;;;;;;;5.00;3.80;;;24.60;95.90;;;;;;4163231;28;20095;-59
2023/05/27 07:52:59;;;;;;;6.50;4.05;;;24.20;96.30;;;;;;4162139;28;20033;-58
2023/05/27 07:55:00;;;;;;;5.82;3.42;;;24.00;96.40;;;;;;4164374;28;20095;-60
2023/05/27 07:57:01;;;;;;;3.88;3.47;;;23.80;96.20;;;;;;4163380;28;20096;-66
2023/05/27 07:59:02;;;;;;;6.38;4.20;;;23.40;96.30;;;;;;4163584;28;20099;-58
2023/05/27 08:01:03;;;;;;;6.43;4.18;;;23.30;96.70;;;;;;4162044;28;20187;-57
2023/05/27 08:03:05;;;;;;;8.00;5.13;;;23.30;96.80;;;;;;4163392;28;20478;-59
2023/05/27 08:05:07;;;;;;;8.32;4.80;;;23.00;96.40;;;;;;4162868;28;20412;-59
2023/05/27 08:07:08;;;;;;;4.10;3.67;;;22.60;96.60;;;;;;4162285;28;20555;-71
2023/05/27 08:09:09;;;;;;;5.28;4.10;;;22.40;96.80;;;;;;4163309;28;20029;-58
2023/05/27 08:11:10;;;;;;;5.13;3.47;;;22.40;96.80;;;;;;4162537;28;20144;-60
2023/05/27 08:13:11;;;;;;;5.47;3.67;;;22.30;96.90;;;;;;4163338;28;20037;-60
2023/05/27 08:15:12;;;;;;;5.07;4.03;;;22.40;97.00;;;;;;4162303;28;20528;-67
2023/05/27 08:17:14;;;;;;;7.25;4.55;;;22.60;96.90;;;;;;4163696;28;20508;-59
2023/05/27 08:19:15;;;;;;;5.43;4.40;;;22.70;96.70;;;;;;4162222;28;20410;-58
2023/05/27 08:21:16;;;;;;;7.57;4.32;;;23.00;96.70;;;;;;4162682;28;20033;-58
2023/05/27 08:23:18;;;;;;;7.30;3.90;;;23.00;96.80;;;;;;4162126;28;20713;-61
2023/05/27 08:25:19;;;;;;;7.72;3.92;;;23.10;96.70;;;;;;4163440;28;20433;-61
2023/05/27 08:27:40;;;;;;;5.90;4.38;;;23.10;96.80;;;;;;4162262;28;20509;-60
2023/05/27 08:29:42;;;;;;;7.43;3.95;;;23.30;96.80;;;;;;4162777;28;20077;-68
2023/05/27 08:31:43;;;;;;;5.43;4.07;;;23.50;96.70;;;;;;4162139;28;20178;-69
2023/05/27 08:33:45;;;;;;;5.53;4.47;;;23.50;96.60;;;;;;4163356;28;20425;-71
2023/05/27 08:35:46;;;;;;;6.00;4.32;;;23.40;96.70;;;;;;4161493;28;20068;-73
2023/05/27 08:37:48;;;;;;;6.10;3.95;;;23.40;96.50;;;;;;4162310;28;20049;-68
2023/05/27 08:39:49;;;;;;;4.97;4.35;;;23.50;96.20;;;;;;4161336;28;20071;-66
2023/05/27 08:41:50;;;;;;;5.18;4.68;;;23.50;96.00;;;;;;4162651;28;20445;-68
2023/05/27 08:43:52;;;;;;;5.70;4.38;;;23.50;96.30;;;;;;4161308;28;20087;-64
2023/05/27 08:45:53;;;;;;;4.95;4.25;;;23.50;96.40;;;;;;4162402;28;20021;-67
2023/05/27 08:47:54;;;;;;;5.90;4.07;;;23.40;96.70;;;;;;4162887;28;20470;-69
2023/05/27 08:49:58;;;;;;;5.47;3.95;;;23.40;96.90;;;;;;4161763;28;20092;-74
2023/05/27 08:52:01;;;;;;;5.72;3.90;;;23.50;97.30;;;;;;4162710;28;20072;-68
2023/05/27 08:54:03;;;;;;;7.60;4.88;;;23.60;97.10;;;;;;4160236;28;20481;-62
2023/05/27 08:56:06;;;;;;;8.27;4.28;;;23.60;97.00;;;;;;4161533;28;20501;-70
2023/05/27 08:58:08;;;;;;;4.63;3.97;;;23.30;96.90;;;;;;4160607;28;20088;-66
2023/05/27 09:00:11;;;;;;;5.80;4.60;;;23.20;97.10;;;;;;4162439;28;20041;-65
2023/05/27 09:02:13;;;;;;;5.35;4.85;;;23.20;97.30;;;;;;4160845;28;20033;-66
2023/05/27 09:04:14;;;;;;;4.75;4.32;;;23.30;97.50;;;;;;4162514;28;20033;-63
2023/05/27 09:06:15;;;;;;;6.60;4.80;;;23.50;96.80;;;;;;4160248;28;20049;-64
2023/05/27 09:08:16;;;;;;;7.43;4.38;;;23.30;96.70;;;;;;4163053;28;20555;-65
2023/05/27 09:10:17;;;;;;;4.68;3.67;;;23.20;96.80;;;;;;4161450;28;20433;-72
2023/05/27 09:12:25;;;;;;;5.97;4.03;;;23.30;96.80;;;;;;4162112;28;20252;-73
2023/05/27 09:14:28;;;;;;;4.65;4.20;;;23.40;96.80;;;;;;4158886;28;20068;-58
2023/05/27 09:16:30;;;;;;;4.68;3.67;;;23.40;96.50;;;;;;4147466;28;20100;-72
2023/05/27 09:18:36;;;;;;;3.95;3.60;;;23.50;96.50;;;;;;4131000;28;20404;-69
2023/05/27 09:20:37;;;;;;;5.47;3.85;;;23.60;96.20;;;;;;4162383;28;20095;-72
2023/05/27 09:22:39;;;;;;;7.45;3.53;;;23.50;96.40;;;;;;4161833;28;20049;-75
2023/05/27 09:24:41;;;;;;;7.57;3.92;;;23.50;96.30;;;;;;4161731;28;20029;-73
2023/05/27 09:26:42;;;;;;;5.70;4.10;;;23.50;96.60;;;;;;4161825;28;20092;-61
2023/05/27 09:28:45;;;;;;;5.70;4.10;;;23.60;96.70;;;;;;4160412;28;20088;-63
2023/05/27 09:30:47;;;;;;;6.03;4.22;;;23.60;96.70;;;;;;4160954;28;20107;-61
2023/05/27 09:32:48;;;;;;;4.40;3.80;;;23.70;96.70;;;;;;4161495;28;20091;-61
2023/05/27 09:34:50;;;;;;;6.43;5.18;;;23.80;96.50;;;;;;4161826;28;20041;-60
2023/05/27 09:36:51;;;;;;;8.27;4.43;;;23.80;96.40;;;;;;4143114;28;20157;-61
2023/05/27 09:38:53;;;;;;;3.70;3.40;;;23.60;96.50;;;;;;4161805;28;20493;-60
2023/05/27 09:40:54;;;;;;;4.50;3.63;;;23.70;96.50;;;;;;4160187;28;20033;-68
2023/05/27 09:42:55;;;;;;;11.68;4.50;;;23.70;95.60;;;;;;4161565;28;20037;-65
2023/05/27 09:44:56;;;;;;;4.93;3.97;;;23.60;94.70;;;;;;4160245;28;20037;-71
2023/05/27 09:47:00;;;;;;;6.18;4.22;;;23.60;95.10;;;;;;4161499;28;20097;-71
2023/05/27 09:49:03;;;;;;;12.50;4.75;;;23.60;95.00;;;;;;4161743;28;20478;-60
2023/05/27 09:51:05;;;;;;;39.40;24.83;;;23.70;94.90;;;;;;4160865;28;20041;-67
2023/05/27 09:53:06;;;;;;;10.45;6.07;;;23.70;95.20;;;;;;4161254;28;20029;-65
2023/05/27 09:55:09;;;;;;;6.90;4.30;;;23.80;95.10;;;;;;4159490;28;20030;-69
2023/05/27 09:57:11;;;;;;;3.67;3.38;;;23.80;94.80;;;;;;4160831;28;20088;-63
2023/05/27 09:59:13;;;;;;;5.65;3.80;;;23.60;94.80;;;;;;4160631;28;20378;-71
2023/05/27 10:01:17;;;;;;;6.55;4.35;;;23.50;94.50;;;;;;4161298;28;20115;-73
2023/05/27 10:03:21;;;;;;;5.05;4.05;;;23.40;94.70;;;;;;4160430;28;20339;-72
2023/05/27 10:05:22;;;;;;;9.23;4.28;;;23.50;94.60;;;;;;4160955;28;20095;-67
2023/05/27 10:07:24;;;;;;;7.40;4.22;;;23.60;94.60;;;;;;4160102;28;20544;-65
2023/05/27 10:09:26;;;;;;;5.93;4.43;;;23.90;94.50;;;;;;4161422;28;20049;-66
2023/05/27 10:11:31;;;;;;;4.38;3.97;;;24.00;94.30;;;;;;4160127;28;20445;-70
2023/05/27 10:13:32;;;;;;;8.73;4.68;;;24.10;94.80;;;;;;4160754;28;20049;-68
2023/05/27 10:15:34;;;;;;;7.18;4.45;;;23.90;94.50;;;;;;4160660;28;20025;-69
2023/05/27 10:17:51;;;;;;;3.88;3.45;;;23.70;94.60;;;;;;4161133;28;20112;-72
2023/05/27 10:19:56;;;;;;;5.80;4.40;;;23.70;94.70;;;;;;4160813;28;20109;-71
2023/05/27 10:22:07;;;;;;;5.60;3.92;;;23.70;94.40;;;;;;4161520;28;20131;-70
2023/05/27 10:24:13;;;;;;;4.22;3.75;;;23.80;94.10;;;;;;4160860;28;20025;-71
2023/05/27 10:26:15;;;;;;;10.65;4.75;;;24.00;93.90;;;;;;4162224;28;20021;-72
2023/05/27 10:28:35;;;;;;;6.43;4.22;;;24.00;93.60;;;;;;4159649;28;20105;-69
2023/05/27 10:30:44;;;;;;;5.43;4.47;;;24.20;93.70;;;;;;4161058;28;20037;-66
2023/05/27 10:32:49;;;;;;;7.40;4.13;;;24.20;93.00;;;;;;4159246;28;20135;-66
2023/05/27 10:34:52;;;;;;;6.15;3.83;;;24.20;93.10;;;;;;4160786;28;20368;-70